sensor_id;sensor_type;location;lat;lon;timestamp;pressure;altitude;pressure_sealevel;temperature;humidity
11011;BME280;5558;42.702;23.178;2022-10-31T00:01:11;94155.13;;;14.10;60.52
11011;BME280;5558;42.702;23.178;2022-10-31T00:03:38;94144.22;;;14.07;60.38
11011;BME280;5558;42.702;23.178;2022-10-31T00:06:04;94144.75;;;14.04;60.87
11011;BME280;5558;42.702;23.178;2022-10-31T00:08:33;94152.50;;;13.95;61.14
11011;BME280;5558;42.702;23.178;2022-10-31T00:11:00;94151.25;;;13.78;61.71
11011;BME280;5558;42.702;23.178;2022-10-31T00:13:26;94165.41;;;13.63;62.58
11011;BME280;5558;42.702;23.178;2022-10-31T00:15:54;94160.06;;;13.73;62.84
11011;BME280;5558;42.702;23.178;2022-10-31T00:18:20;94163.50;;;13.74;62.74
11011;BME280;5558;42.702;23.178;2022-10-31T00:20:47;94161.69;;;13.64;63.23
11011;BME280;5558;42.702;23.178;2022-10-31T00:23:14;94153.44;;;13.66;63.89
11011;BME280;5558;42.702;23.178;2022-10-31T00:25:42;94153.25;;;13.32;64.93
11011;BME280;5558;42.702;23.178;2022-10-31T00:28:10;94147.38;;;13.40;65.67
11011;BME280;5558;42.702;23.178;2022-10-31T00:30:38;94154.31;;;13.36;65.45
11011;BME280;5558;42.702;23.178;2022-10-31T00:33:04;94158.03;;;13.25;66.36
11011;BME280;5558;42.702;23.178;2022-10-31T00:35:31;94161.78;;;13.14;66.81
11011;BME280;5558;42.702;23.178;2022-10-31T00:37:58;94153.81;;;13.09;67.33
11011;BME280;5558;42.702;23.178;2022-10-31T00:40:25;94148.47;;;12.89;68.26
11011;BME280;5558;42.702;23.178;2022-10-31T00:42:53;94161.22;;;12.97;68.68
11011;BME280;5558;42.702;23.178;2022-10-31T00:45:20;94152.19;;;12.98;69.26
11011;BME280;5558;42.702;23.178;2022-10-31T00:47:47;94157.50;;;12.78;70.20
11011;BME280;5558;42.702;23.178;2022-10-31T00:50:13;94136.78;;;12.50;71.55
11011;BME280;5558;42.702;23.178;2022-10-31T00:52:40;94141.28;;;12.59;72.21
11011;BME280;5558;42.702;23.178;2022-10-31T00:55:07;94153.50;;;12.60;72.09
11011;BME280;5558;42.702;23.178;2022-10-31T00:57:33;94159.34;;;12.72;71.96
11011;BME280;5558;42.702;23.178;2022-10-31T01:00:02;94150.34;;;12.68;71.98
11011;BME280;5558;42.702;23.178;2022-10-31T01:02:29;94153.25;;;12.72;71.86
11011;BME280;5558;42.702;23.178;2022-10-31T01:04:56;94158.31;;;12.73;72.18
11011;BME280;5558;42.702;23.178;2022-10-31T01:07:23;94121.63;;;12.35;73.33
11011;BME280;5558;42.702;23.178;2022-10-31T01:09:49;94154.03;;;12.57;73.36
11011;BME280;5558;42.702;23.178;2022-10-31T01:12:16;94156.16;;;12.65;73.45
11011;BME280;5558;42.702;23.178;2022-10-31T01:14:43;94162.00;;;12.62;74.26
11011;BME280;5558;42.702;23.178;2022-10-31T01:17:12;94160.69;;;12.55;74.72
11011;BME280;5558;42.702;23.178;2022-10-31T01:19:39;94154.28;;;12.51;75.00
11011;BME280;5558;42.702;23.178;2022-10-31T01:22:06;94153.75;;;12.39;75.23
11011;BME280;5558;42.702;23.178;2022-10-31T01:24:33;94162.78;;;12.43;76.38
11011;BME280;5558;42.702;23.178;2022-10-31T01:27:00;94157.47;;;12.48;76.52
11011;BME280;5558;42.702;23.178;2022-10-31T01:29:27;94160.41;;;12.41;76.55
11011;BME280;5558;42.702;23.178;2022-10-31T01:31:53;94155.25;;;12.04;78.62
11011;BME280;5558;42.702;23.178;2022-10-31T01:34:21;94158.06;;;11.78;81.38
11011;BME280;5558;42.702;23.178;2022-10-31T01:36:48;94159.75;;;11.99;81.35
11011;BME280;5558;42.702;23.178;2022-10-31T01:39:17;94151.69;;;11.74;83.29
11011;BME280;5558;42.702;23.178;2022-10-31T01:41:46;94151.00;;;12.03;82.30
11011;BME280;5558;42.702;23.178;2022-10-31T01:47:20;94153.69;;;12.18;82.66
11011;BME280;5558;42.702;23.178;2022-10-31T01:49:51;94154.53;;;12.29;82.70
11011;BME280;5558;42.702;23.178;2022-10-31T01:52:21;94151.09;;;12.49;82.56
11011;BME280;5558;42.702;23.178;2022-10-31T01:54:53;94153.22;;;12.52;82.87
11011;BME280;5558;42.702;23.178;2022-10-31T01:57:22;94141.56;;;12.63;82.32
11011;BME280;5558;42.702;23.178;2022-10-31T01:59:55;94145.03;;;12.68;82.47
11011;BME280;5558;42.702;23.178;2022-10-31T02:02:24;94153.78;;;12.79;82.19
11011;BME280;5558;42.702;23.178;2022-10-31T02:04:53;94153.00;;;12.83;81.99
11011;BME280;5558;42.702;23.178;2022-10-31T02:07:25;94152.72;;;12.80;81.76
11011;BME280;5558;42.702;23.178;2022-10-31T02:09:53;94154.81;;;12.33;84.20
11011;BME280;5558;42.702;23.178;2022-10-31T02:12:22;94147.91;;;12.57;81.41
11011;BME280;5558;42.702;23.178;2022-10-31T02:14:49;94156.16;;;12.60;83.36
11011;BME280;5558;42.702;23.178;2022-10-31T02:17:16;94157.75;;;12.46;83.92
11011;BME280;5558;42.702;23.178;2022-10-31T02:19:50;94154.81;;;12.38;85.09
11011;BME280;5558;42.702;23.178;2022-10-31T02:22:26;94163.31;;;12.45;81.67
11011;BME280;5558;42.702;23.178;2022-10-31T02:25:05;94160.16;;;12.58;81.49
11011;BME280;5558;42.702;23.178;2022-10-31T02:27:49;94167.03;;;12.49;84.11
11011;BME280;5558;42.702;23.178;2022-10-31T02:30:22;94166.78;;;12.70;80.51
11011;BME280;5558;42.702;23.178;2022-10-31T02:33:03;94162.28;;;12.81;81.22
11011;BME280;5558;42.702;23.178;2022-10-31T02:35:40;94167.59;;;12.91;79.69
11011;BME280;5558;42.702;23.178;2022-10-31T02:38:19;94177.19;;;13.07;78.44
11011;BME280;5558;42.702;23.178;2022-10-31T02:40:56;94171.88;;;13.12;77.15
11011;BME280;5558;42.702;23.178;2022-10-31T02:43:30;94164.19;;;13.15;77.27
11011;BME280;5558;42.702;23.178;2022-10-31T02:46:07;94181.69;;;13.21;77.84
11011;BME280;5558;42.702;23.178;2022-10-31T02:48:39;94174.53;;;13.22;78.77
11011;BME280;5558;42.702;23.178;2022-10-31T02:51:08;94175.09;;;13.09;80.63
11011;BME280;5558;42.702;23.178;2022-10-31T02:53:37;94174.53;;;12.92;81.01
11011;BME280;5558;42.702;23.178;2022-10-31T02:56:07;94175.84;;;12.94;80.87
11011;BME280;5558;42.702;23.178;2022-10-31T02:58:38;94187.03;;;13.01;80.48
11011;BME280;5558;42.702;23.178;2022-10-31T03:01:28;94185.41;;;12.85;82.15
11011;BME280;5558;42.702;23.178;2022-10-31T03:04:21;94180.88;;;13.01;81.99
11011;BME280;5558;42.702;23.178;2022-10-31T03:06:56;94184.34;;;13.21;80.69
11011;BME280;5558;42.702;23.178;2022-10-31T03:09:30;94188.06;;;12.95;81.59
11011;BME280;5558;42.702;23.178;2022-10-31T03:12:04;94195.78;;;12.92;81.68
11011;BME280;5558;42.702;23.178;2022-10-31T03:14:40;94185.16;;;13.12;81.52
11011;BME280;5558;42.702;23.178;2022-10-31T03:17:10;94181.44;;;13.18;80.74
11011;BME280;5558;42.702;23.178;2022-10-31T03:19:43;94189.41;;;13.23;79.39
11011;BME280;5558;42.702;23.178;2022-10-31T03:22:16;94189.94;;;13.25;78.84
11011;BME280;5558;42.702;23.178;2022-10-31T03:24:44;94192.31;;;13.26;78.68
11011;BME280;5558;42.702;23.178;2022-10-31T03:27:16;94197.38;;;13.33;78.26
11011;BME280;5558;42.702;23.178;2022-10-31T03:29:46;94200.56;;;13.30;78.50
11011;BME280;5558;42.702;23.178;2022-10-31T03:32:17;94201.09;;;13.37;78.22
11011;BME280;5558;42.702;23.178;2022-10-31T03:34:48;94198.97;;;13.39;78.33
11011;BME280;5558;42.702;23.178;2022-10-31T03:37:18;94197.91;;;13.35;78.30
11011;BME280;5558;42.702;23.178;2022-10-31T03:39:46;94187.53;;;12.78;81.13
11011;BME280;5558;42.702;23.178;2022-10-31T03:42:16;94198.94;;;12.99;81.02
11011;BME280;5558;42.702;23.178;2022-10-31T03:44:48;94207.72;;;12.94;81.78
11011;BME280;5558;42.702;23.178;2022-10-31T03:47:17;94208.78;;;12.73;82.49
11011;BME280;5558;42.702;23.178;2022-10-31T03:49:46;94205.88;;;12.85;81.78
11011;BME280;5558;42.702;23.178;2022-10-31T03:52:19;94208.78;;;12.93;80.51
11011;BME280;5558;42.702;23.178;2022-10-31T03:54:54;94206.41;;;12.87;80.32
11011;BME280;5558;42.702;23.178;2022-10-31T03:57:25;94207.44;;;12.76;79.42
11011;BME280;5558;42.702;23.178;2022-10-31T03:59:55;94213.53;;;12.56;80.99
11011;BME280;5558;42.702;23.178;2022-10-31T04:02:29;94219.09;;;12.55;81.74
11011;BME280;5558;42.702;23.178;2022-10-31T04:04:58;94215.84;;;12.33;83.05
11011;BME280;5558;42.702;23.178;2022-10-31T04:07:27;94220.31;;;12.22;84.60
11011;BME280;5558;42.702;23.178;2022-10-31T04:09:56;94221.66;;;12.29;85.39
11011;BME280;5558;42.702;23.178;2022-10-31T04:12:24;94227.22;;;12.28;85.71
11011;BME280;5558;42.702;23.178;2022-10-31T04:14:52;94224.84;;;12.32;85.80
11011;BME280;5558;42.702;23.178;2022-10-31T04:17:21;94225.44;;;12.44;85.61
11011;BME280;5558;42.702;23.178;2022-10-31T04:19:49;94225.97;;;12.41;85.35
11011;BME280;5558;42.702;23.178;2022-10-31T04:22:17;94231.00;;;12.37;86.50
11011;BME280;5558;42.702;23.178;2022-10-31T04:24:44;94223.53;;;12.24;88.27
11011;BME280;5558;42.702;23.178;2022-10-31T04:27:10;94222.72;;;12.23;89.11
11011;BME280;5558;42.702;23.178;2022-10-31T04:29:37;94231.50;;;12.29;89.37
11011;BME280;5558;42.702;23.178;2022-10-31T04:32:04;94237.06;;;12.22;90.86
11011;BME280;5558;42.702;23.178;2022-10-31T04:34:31;94229.38;;;12.26;91.30
11011;BME280;5558;42.702;23.178;2022-10-31T04:36:57;94226.97;;;12.35;91.13
11011;BME280;5558;42.702;23.178;2022-10-31T04:39:25;94220.09;;;12.39;90.74
11011;BME280;5558;42.702;23.178;2022-10-31T04:41:52;94223.06;;;12.52;90.96
11011;BME280;5558;42.702;23.178;2022-10-31T04:44:19;94222.28;;;12.62;90.18
11011;BME280;5558;42.702;23.178;2022-10-31T04:46:46;94223.38;;;12.71;90.17
11011;BME280;5558;42.702;23.178;2022-10-31T04:49:13;94226.03;;;12.76;89.84
11011;BME280;5558;42.702;23.178;2022-10-31T04:51:39;94226.03;;;12.91;88.37
11011;BME280;5558;42.702;23.178;2022-10-31T04:54:06;94236.44;;;13.02;87.83
11011;BME280;5558;42.702;23.178;2022-10-31T04:56:34;94242.25;;;12.94;88.10
11011;BME280;5558;42.702;23.178;2022-10-31T04:59:01;94208.53;;;12.85;87.79
11011;BME280;5558;42.702;23.178;2022-10-31T05:01:28;94238.59;;;13.15;87.48
11011;BME280;5558;42.702;23.178;2022-10-31T05:03:55;94242.31;;;13.24;86.86
11011;BME280;5558;42.702;23.178;2022-10-31T05:06:21;94247.88;;;13.28;86.81
11011;BME280;5558;42.702;23.178;2022-10-31T05:08:48;94243.91;;;13.30;86.45
11011;BME280;5558;42.702;23.178;2022-10-31T05:11:15;94248.16;;;13.46;86.20
11011;BME280;5558;42.702;23.178;2022-10-31T05:13:43;94253.44;;;13.62;84.80
11011;BME280;5558;42.702;23.178;2022-10-31T05:16:09;94257.72;;;13.58;84.76
11011;BME280;5558;42.702;23.178;2022-10-31T05:18:36;94251.84;;;13.66;83.88
11011;BME280;5558;42.702;23.178;2022-10-31T05:21:03;94255.28;;;13.86;83.87
11011;BME280;5558;42.702;23.178;2022-10-31T05:23:30;94256.31;;;14.00;82.52
11011;BME280;5558;42.702;23.178;2022-10-31T05:25:56;94255.00;;;13.93;80.36
11011;BME280;5558;42.702;23.178;2022-10-31T05:28:23;94254.75;;;13.84;80.42
11011;BME280;5558;42.702;23.178;2022-10-31T05:30:51;94260.34;;;13.83;80.39
11011;BME280;5558;42.702;23.178;2022-10-31T05:33:18;94260.91;;;13.65;81.21
11011;BME280;5558;42.702;23.178;2022-10-31T05:35:45;94265.44;;;13.64;81.38
11011;BME280;5558;42.702;23.178;2022-10-31T05:38:11;94247.88;;;13.48;81.25
11011;BME280;5558;42.702;23.178;2022-10-31T05:40:38;94274.47;;;13.48;81.82
11011;BME280;5558;42.702;23.178;2022-10-31T05:43:05;94273.16;;;13.40;82.75
11011;BME280;5558;42.702;23.178;2022-10-31T05:45:31;94272.34;;;13.40;83.78
11011;BME280;5558;42.702;23.178;2022-10-31T05:48:00;94275.44;;;14.12;81.42
11011;BME280;5558;42.702;23.178;2022-10-31T05:50:29;94273.13;;;15.13;76.08
11011;BME280;5558;42.702;23.178;2022-10-31T05:52:59;94279.09;;;16.01;69.95
11011;BME280;5558;42.702;23.178;2022-10-31T05:55:26;94274.50;;;16.77;64.36
11011;BME280;5558;42.702;23.178;2022-10-31T05:57:52;94267.19;;;17.57;60.63
11011;BME280;5558;42.702;23.178;2022-10-31T06:00:20;94277.72;;;18.32;57.58
11011;BME280;5558;42.702;23.178;2022-10-31T06:02:48;94268.75;;;19.04;54.74
11011;BME280;5558;42.702;23.178;2022-10-31T06:05:16;94282.06;;;19.80;52.34
11011;BME280;5558;42.702;23.178;2022-10-31T06:07:43;94283.97;;;20.32;50.41
11011;BME280;5558;42.702;23.178;2022-10-31T06:10:10;94283.63;;;20.65;48.77
11011;BME280;5558;42.702;23.178;2022-10-31T06:12:36;94291.56;;;21.17;47.27
11011;BME280;5558;42.702;23.178;2022-10-31T06:15:04;94287.63;;;21.57;46.18
11011;BME280;5558;42.702;23.178;2022-10-31T06:17:32;94299.22;;;21.84;45.85
11011;BME280;5558;42.702;23.178;2022-10-31T06:19:59;94289.81;;;22.24;44.68
11011;BME280;5558;42.702;23.178;2022-10-31T06:22:27;94298.91;;;22.65;43.67
11011;BME280;5558;42.702;23.178;2022-10-31T06:24:54;94298.03;;;22.82;42.97
11011;BME280;5558;42.702;23.178;2022-10-31T06:27:21;94303.47;;;23.11;42.23
11011;BME280;5558;42.702;23.178;2022-10-31T06:29:48;94280.09;;;23.15;41.38
11011;BME280;5558;42.702;23.178;2022-10-31T06:32:15;94313.28;;;23.16;41.49
11011;BME280;5558;42.702;23.178;2022-10-31T06:34:42;94311.66;;;23.23;41.18
11011;BME280;5558;42.702;23.178;2022-10-31T06:37:11;94319.84;;;23.44;40.21
11011;BME280;5558;42.702;23.178;2022-10-31T06:39:39;94318.88;;;23.11;40.22
11011;BME280;5558;42.702;23.178;2022-10-31T06:42:06;94316.44;;;22.88;40.65
11011;BME280;5558;42.702;23.178;2022-10-31T06:44:33;94314.88;;;22.24;41.95
11011;BME280;5558;42.702;23.178;2022-10-31T06:46:59;94327.81;;;21.11;44.05
11011;BME280;5558;42.702;23.178;2022-10-31T06:49:26;94321.25;;;20.56;45.26
11011;BME280;5558;42.702;23.178;2022-10-31T06:51:53;94319.53;;;19.14;49.02
11011;BME280;5558;42.702;23.178;2022-10-31T06:54:20;94327.91;;;18.58;50.75
11011;BME280;5558;42.702;23.178;2022-10-31T06:56:48;94327.59;;;18.60;51.20
11011;BME280;5558;42.702;23.178;2022-10-31T06:59:15;94326.22;;;18.30;52.02
11011;BME280;5558;42.702;23.178;2022-10-31T07:01:43;94326.97;;;17.53;55.47
11011;BME280;5558;42.702;23.178;2022-10-31T07:04:09;94326.53;;;16.85;58.10
11011;BME280;5558;42.702;23.178;2022-10-31T07:06:38;94330.94;;;16.52;60.50
11011;BME280;5558;42.702;23.178;2022-10-31T07:09:05;94334.94;;;16.26;62.62
11011;BME280;5558;42.702;23.178;2022-10-31T07:11:31;94324.44;;;16.06;64.08
11011;BME280;5558;42.702;23.178;2022-10-31T07:13:59;94331.47;;;15.97;65.80
11011;BME280;5558;42.702;23.178;2022-10-31T07:16:26;94332.34;;;16.16;65.77
11011;BME280;5558;42.702;23.178;2022-10-31T07:18:53;94332.63;;;16.43;64.89
11011;BME280;5558;42.702;23.178;2022-10-31T07:21:20;94328.44;;;16.32;64.95
11011;BME280;5558;42.702;23.178;2022-10-31T07:23:47;94326.91;;;16.55;64.02
11011;BME280;5558;42.702;23.178;2022-10-31T07:26:15;94324.16;;;16.83;63.04
11011;BME280;5558;42.702;23.178;2022-10-31T07:28:42;94313.78;;;16.30;65.30
11011;BME280;5558;42.702;23.178;2022-10-31T07:31:10;94320.00;;;16.25;66.93
11011;BME280;5558;42.702;23.178;2022-10-31T07:33:36;94321.38;;;16.18;67.49
11011;BME280;5558;42.702;23.178;2022-10-31T07:36:03;94318.50;;;16.38;67.13
11011;BME280;5558;42.702;23.178;2022-10-31T07:38:30;94319.13;;;16.58;65.92
11011;BME280;5558;42.702;23.178;2022-10-31T07:40:57;94316.28;;;16.50;66.24
11011;BME280;5558;42.702;23.178;2022-10-31T07:43:23;94316.78;;;16.52;67.15
11011;BME280;5558;42.702;23.178;2022-10-31T07:45:51;94307.38;;;16.78;65.90
11011;BME280;5558;42.702;23.178;2022-10-31T07:48:20;94313.00;;;16.76;64.39
11011;BME280;5558;42.702;23.178;2022-10-31T07:50:46;94317.00;;;16.79;64.13
11011;BME280;5558;42.702;23.178;2022-10-31T07:53:14;94315.72;;;16.95;63.21
11011;BME280;5558;42.702;23.178;2022-10-31T07:55:41;94310.16;;;16.91;63.50
11011;BME280;5558;42.702;23.178;2022-10-31T07:58:09;94293.88;;;16.88;63.74
11011;BME280;5558;42.702;23.178;2022-10-31T08:00:37;94312.75;;;16.96;64.50
11011;BME280;5558;42.702;23.178;2022-10-31T08:03:06;94314.81;;;17.23;63.84
11011;BME280;5558;42.702;23.178;2022-10-31T08:05:34;94321.59;;;17.16;64.79
11011;BME280;5558;42.702;23.178;2022-10-31T08:08:01;94312.69;;;17.39;63.44
11011;BME280;5558;42.702;23.178;2022-10-31T08:10:28;94318.41;;;17.14;63.56
11011;BME280;5558;42.702;23.178;2022-10-31T08:12:56;94313.69;;;16.87;65.38
11011;BME280;5558;42.702;23.178;2022-10-31T08:15:23;94315.78;;;16.90;65.31
11011;BME280;5558;42.702;23.178;2022-10-31T08:17:50;94313.09;;;16.90;66.75
11011;BME280;5558;42.702;23.178;2022-10-31T08:20:17;94315.03;;;16.84;67.60
11011;BME280;5558;42.702;23.178;2022-10-31T08:22:53;94320.09;;;16.67;67.88
11011;BME280;5558;42.702;23.178;2022-10-31T08:25:20;94323.47;;;16.73;69.26
11011;BME280;5558;42.702;23.178;2022-10-31T08:27:49;94320.84;;;16.91;68.65
11011;BME280;5558;42.702;23.178;2022-10-31T08:30:16;94322.09;;;16.99;68.01
11011;BME280;5558;42.702;23.178;2022-10-31T08:32:43;94317.91;;;17.12;66.43
11011;BME280;5558;42.702;23.178;2022-10-31T08:35:10;94322.03;;;17.23;65.91
11011;BME280;5558;42.702;23.178;2022-10-31T08:37:37;94319.13;;;17.19;65.78
11011;BME280;5558;42.702;23.178;2022-10-31T08:40:06;94311.03;;;17.43;63.92
11011;BME280;5558;42.702;23.178;2022-10-31T08:42:33;94318.25;;;17.42;63.69
11011;BME280;5558;42.702;23.178;2022-10-31T08:44:59;94321.03;;;17.56;62.53
11011;BME280;5558;42.702;23.178;2022-10-31T08:47:26;94320.47;;;17.59;62.56
11011;BME280;5558;42.702;23.178;2022-10-31T08:49:54;94307.91;;;17.73;61.73
11011;BME280;5558;42.702;23.178;2022-10-31T08:52:22;94310.59;;;17.73;60.99
11011;BME280;5558;42.702;23.178;2022-10-31T08:54:49;94314.25;;;17.63;60.99
11011;BME280;5558;42.702;23.178;2022-10-31T08:57:17;94316.16;;;17.76;60.79
11011;BME280;5558;42.702;23.178;2022-10-31T08:59:44;94317.81;;;17.91;60.05
11011;BME280;5558;42.702;23.178;2022-10-31T09:02:11;94315.97;;;18.05;59.25
11011;BME280;5558;42.702;23.178;2022-10-31T09:04:37;94314.00;;;18.10;59.46
11011;BME280;5558;42.702;23.178;2022-10-31T09:07:04;94315.56;;;18.11;59.23
11011;BME280;5558;42.702;23.178;2022-10-31T09:09:31;94323.25;;;18.18;58.96
11011;BME280;5558;42.702;23.178;2022-10-31T09:11:57;94317.81;;;18.23;58.92
11011;BME280;5558;42.702;23.178;2022-10-31T09:14:26;94315.59;;;18.25;58.55
11011;BME280;5558;42.702;23.178;2022-10-31T09:16:53;94315.72;;;18.34;58.48
11011;BME280;5558;42.702;23.178;2022-10-31T09:19:19;94309.94;;;18.26;57.73
11011;BME280;5558;42.702;23.178;2022-10-31T09:21:46;94312.88;;;18.44;57.23
11011;BME280;5558;42.702;23.178;2022-10-31T09:24:13;94316.16;;;18.54;57.71
11011;BME280;5558;42.702;23.178;2022-10-31T09:26:39;94312.22;;;18.65;55.97
11011;BME280;5558;42.702;23.178;2022-10-31T09:29:06;94314.78;;;18.70;55.96
11011;BME280;5558;42.702;23.178;2022-10-31T09:31:36;94319.03;;;18.85;55.42
11011;BME280;5558;42.702;23.178;2022-10-31T09:34:03;94317.06;;;18.77;55.26
11011;BME280;5558;42.702;23.178;2022-10-31T09:36:29;94310.00;;;18.67;55.34
11011;BME280;5558;42.702;23.178;2022-10-31T09:38:56;94312.00;;;18.89;55.41
11011;BME280;5558;42.702;23.178;2022-10-31T09:41:30;94310.38;;;19.01;54.27
11011;BME280;5558;42.702;23.178;2022-10-31T09:44:06;94283.47;;;18.93;54.38
11011;BME280;5558;42.702;23.178;2022-10-31T09:46:45;94312.44;;;19.18;53.95
11011;BME280;5558;42.702;23.178;2022-10-31T09:49:41;94300.31;;;19.34;53.65
11011;BME280;5558;42.702;23.178;2022-10-31T09:52:19;94306.91;;;19.14;54.16
11011;BME280;5558;42.702;23.178;2022-10-31T09:54:51;94306.91;;;19.14;53.82
11011;BME280;5558;42.702;23.178;2022-10-31T09:57:23;94300.81;;;19.36;54.01
11011;BME280;5558;42.702;23.178;2022-10-31T09:59:51;94299.25;;;19.57;53.21
11011;BME280;5558;42.702;23.178;2022-10-31T10:02:23;94302.78;;;19.66;53.03
11011;BME280;5558;42.702;23.178;2022-10-31T10:04:56;94295.66;;;19.62;53.77
11011;BME280;5558;42.702;23.178;2022-10-31T10:07:30;94293.50;;;19.72;52.85
11011;BME280;5558;42.702;23.178;2022-10-31T10:10:01;94297.63;;;19.70;50.94
11011;BME280;5558;42.702;23.178;2022-10-31T10:12:40;94286.44;;;19.76;50.71
11011;BME280;5558;42.702;23.178;2022-10-31T10:15:28;94293.75;;;19.84;50.54
11011;BME280;5558;42.702;23.178;2022-10-31T10:18:05;94295.53;;;19.67;50.95
11011;BME280;5558;42.702;23.178;2022-10-31T10:20:37;94288.75;;;19.69;51.17
11011;BME280;5558;42.702;23.178;2022-10-31T10:23:23;94278.19;;;19.95;50.34
11011;BME280;5558;42.702;23.178;2022-10-31T10:26:00;94281.00;;;19.68;50.45
11011;BME280;5558;42.702;23.178;2022-10-31T10:28:30;94282.88;;;19.67;50.79
11011;BME280;5558;42.702;23.178;2022-10-31T10:31:06;94278.63;;;19.88;50.73
11011;BME280;5558;42.702;23.178;2022-10-31T10:33:38;94275.06;;;20.01;49.80
11011;BME280;5558;42.702;23.178;2022-10-31T10:36:10;94272.06;;;20.03;49.64
11011;BME280;5558;42.702;23.178;2022-10-31T10:38:44;94275.81;;;20.15;48.64
11011;BME280;5558;42.702;23.178;2022-10-31T10:41:17;94269.53;;;20.28;48.99
11011;BME280;5558;42.702;23.178;2022-10-31T10:43:44;94264.22;;;20.37;48.48
11011;BME280;5558;42.702;23.178;2022-10-31T10:46:17;94261.75;;;20.18;48.78
11011;BME280;5558;42.702;23.178;2022-10-31T10:49:12;94258.75;;;20.20;48.13
11011;BME280;5558;42.702;23.178;2022-10-31T10:51:44;94251.78;;;20.19;48.30
11011;BME280;5558;42.702;23.178;2022-10-31T10:54:39;94249.31;;;20.31;48.83
11011;BME280;5558;42.702;23.178;2022-10-31T10:57:18;94249.88;;;20.19;48.36
11011;BME280;5558;42.702;23.178;2022-10-31T10:59:48;94251.66;;;20.24;48.47
11011;BME280;5558;42.702;23.178;2022-10-31T11:02:17;94237.13;;;20.33;48.41
11011;BME280;5558;42.702;23.178;2022-10-31T11:04:49;94245.41;;;20.45;48.39
11011;BME280;5558;42.702;23.178;2022-10-31T11:07:17;94245.19;;;20.73;47.70
11011;BME280;5558;42.702;23.178;2022-10-31T11:09:44;94241.38;;;20.74;47.63
11011;BME280;5558;42.702;23.178;2022-10-31T11:12:18;94244.69;;;20.62;45.79
11011;BME280;5558;42.702;23.178;2022-10-31T11:14:48;94245.03;;;20.69;45.89
11011;BME280;5558;42.702;23.178;2022-10-31T11:17:27;94235.09;;;20.87;45.96
11011;BME280;5558;42.702;23.178;2022-10-31T11:20:23;94233.66;;;20.89;45.75
11011;BME280;5558;42.702;23.178;2022-10-31T11:23:00;94227.63;;;20.84;45.32
11011;BME280;5558;42.702;23.178;2022-10-31T11:25:28;94231.03;;;21.06;45.08
11011;BME280;5558;42.702;23.178;2022-10-31T11:28:05;94222.75;;;20.94;45.58
11011;BME280;5558;42.702;23.178;2022-10-31T11:30:42;94227.50;;;20.97;45.24
11011;BME280;5558;42.702;23.178;2022-10-31T11:33:16;94223.13;;;21.10;45.46
11011;BME280;5558;42.702;23.178;2022-10-31T11:35:45;94215.06;;;21.18;44.85
11011;BME280;5558;42.702;23.178;2022-10-31T11:38:18;94203.00;;;21.16;45.22
11011;BME280;5558;42.702;23.178;2022-10-31T11:40:56;94217.75;;;21.27;45.25
11011;BME280;5558;42.702;23.178;2022-10-31T11:43:24;94220.91;;;21.20;44.50
11011;BME280;5558;42.702;23.178;2022-10-31T11:45:51;94223.13;;;21.10;44.94
11011;BME280;5558;42.702;23.178;2022-10-31T11:48:19;94209.34;;;21.11;45.47
11011;BME280;5558;42.702;23.178;2022-10-31T11:50:51;94211.06;;;21.16;45.05
11011;BME280;5558;42.702;23.178;2022-10-31T11:53:27;94205.53;;;21.29;44.63
11011;BME280;5558;42.702;23.178;2022-10-31T11:56:09;94198.25;;;21.30;44.48
11011;BME280;5558;42.702;23.178;2022-10-31T11:58:36;94203.16;;;21.45;44.36
11011;BME280;5558;42.702;23.178;2022-10-31T12:01:03;94204.09;;;21.57;44.50
11011;BME280;5558;42.702;23.178;2022-10-31T12:03:42;94194.44;;;21.48;44.20
11011;BME280;5558;42.702;23.178;2022-10-31T12:06:14;94202.06;;;21.63;44.39
11011;BME280;5558;42.702;23.178;2022-10-31T12:08:44;94196.94;;;21.61;44.26
11011;BME280;5558;42.702;23.178;2022-10-31T12:11:28;94199.53;;;21.58;44.21
11011;BME280;5558;42.702;23.178;2022-10-31T12:14:05;94189.97;;;21.69;44.18
11011;BME280;5558;42.702;23.178;2022-10-31T12:16:41;94187.31;;;21.77;43.60
11011;BME280;5558;42.702;23.178;2022-10-31T12:19:16;94190.94;;;21.73;44.17
11011;BME280;5558;42.702;23.178;2022-10-31T12:21:59;94188.22;;;21.90;44.07
11011;BME280;5558;42.702;23.178;2022-10-31T12:27:40;94179.00;;;22.00;43.31
11011;BME280;5558;42.702;23.178;2022-10-31T12:30:18;94185.28;;;22.12;42.97
11011;BME280;5558;42.702;23.178;2022-10-31T12:33:05;94182.16;;;22.02;43.32
11011;BME280;5558;42.702;23.178;2022-10-31T12:35:40;94169.97;;;21.96;42.70
11011;BME280;5558;42.702;23.178;2022-10-31T12:41:19;94185.44;;;22.16;42.28
11011;BME280;5558;42.702;23.178;2022-10-31T12:43:54;94185.06;;;22.26;41.76
11011;BME280;5558;42.702;23.178;2022-10-31T12:46:29;94184.63;;;22.24;42.29
11011;BME280;5558;42.702;23.178;2022-10-31T12:49:24;94176.44;;;22.03;41.82
11011;BME280;5558;42.702;23.178;2022-10-31T12:52:03;94182.28;;;22.14;42.18
11011;BME280;5558;42.702;23.178;2022-10-31T12:54:53;94185.28;;;22.12;42.05
11011;BME280;5558;42.702;23.178;2022-10-31T12:57:29;94179.44;;;22.10;42.39
11011;BME280;5558;42.702;23.178;2022-10-31T13:00:03;94185.00;;;22.05;42.42
11011;BME280;5558;42.702;23.178;2022-10-31T13:02:33;94190.56;;;22.09;41.86
11011;BME280;5558;42.702;23.178;2022-10-31T13:05:03;94184.31;;;22.25;42.18
11011;BME280;5558;42.702;23.178;2022-10-31T13:07:36;94180.34;;;22.23;41.81
11011;BME280;5558;42.702;23.178;2022-10-31T13:10:10;94180.00;;;22.24;42.81
11011;BME280;5558;42.702;23.178;2022-10-31T13:12:42;94182.03;;;22.36;42.78
11011;BME280;5558;42.702;23.178;2022-10-31T13:15:15;94181.53;;;22.42;42.92
11011;BME280;5558;42.702;23.178;2022-10-31T13:17:46;94180.22;;;22.48;42.43
11011;BME280;5558;42.702;23.178;2022-10-31T13:20:27;94169.75;;;22.47;42.43
11011;BME280;5558;42.702;23.178;2022-10-31T13:22:56;94174.16;;;22.60;41.14
11011;BME280;5558;42.702;23.178;2022-10-31T13:25:31;94178.63;;;22.56;41.25